桃園國際機場 - ATIS

SPECI RCTP 230050Z 23013KT 9999 FEW015 SCT200 31/26 Q1008 WS R23R NOSIG RMK A2977=

站台狀態:Online
最後更新:2018-06-23 08:45:01